createdAt,value
2023-02-16T00:00:46.323Z,98445.83
2023-02-16T00:03:20.619Z,98438.45
2023-02-16T00:05:56.643Z,98433.36
2023-02-16T00:08:29.302Z,98436.11
2023-02-16T00:11:18.941Z,98438.48
2023-02-16T00:13:53.420Z,98438.06
2023-02-16T00:16:27.364Z,98435.30
2023-02-16T00:18:59.932Z,98440.30
2023-02-16T00:21:33.074Z,98437.85
2023-02-16T00:24:06.105Z,98435.59
2023-02-16T00:26:39.024Z,98429.98
2023-02-16T00:29:16.884Z,98426.25
2023-02-16T00:31:51.407Z,98419.40
2023-02-16T00:34:33.090Z,98418.35
2023-02-16T00:37:07.092Z,98417.27
2023-02-16T00:39:41.909Z,98415.09
2023-02-16T00:42:20.174Z,98412.89
2023-02-16T00:44:55.753Z,98408.48
2023-02-16T00:47:39.783Z,98406.96
2023-02-16T00:50:16.549Z,98407.31
2023-02-16T00:52:51.569Z,98401.44
2023-02-16T00:55:28.060Z,98396.17
2023-02-16T00:58:09.180Z,98390.57
2023-02-16T01:00:45.183Z,98383.08
2023-02-16T01:03:20.904Z,98381.20
2023-02-16T01:06:14.278Z,98380.52
2023-02-16T01:09:04.436Z,98378.70
2023-02-16T01:11:39.726Z,98372.73
2023-02-16T01:14:18.036Z,98369.17
2023-02-16T01:16:51.369Z,98367.92
2023-02-16T01:19:23.865Z,98366.89
2023-02-16T01:21:57.993Z,98365.45
2023-02-16T01:24:35.235Z,98367.09
2023-02-16T01:27:11.763Z,98364.54
2023-02-16T01:29:45.107Z,98361.44
2023-02-16T01:32:17.966Z,98359.75
2023-02-16T01:34:50.532Z,98356.44
2023-02-16T01:37:24.015Z,98353.52
2023-02-16T01:40:30.376Z,98352.77
2023-02-16T01:43:15.526Z,98351.52
2023-02-16T01:45:53.712Z,98352.25
2023-02-16T01:48:29.554Z,98350.77
2023-02-16T01:51:10.567Z,98348.02
2023-02-16T01:53:50.466Z,98346.42
2023-02-16T01:56:32.337Z,98345.42
2023-02-16T01:59:13.177Z,98340.80
2023-02-16T02:01:53.271Z,98334.33
2023-02-16T02:04:48.699Z,98332.23
2023-02-16T02:07:28.629Z,98324.66
2023-02-16T02:10:08.757Z,98317.51
2023-02-16T02:12:48.503Z,98317.45
2023-02-16T02:15:27.448Z,98315.88
2023-02-16T02:18:01.508Z,98317.25
2023-02-16T02:21:10.494Z,98316.19
2023-02-16T02:23:57.596Z,98313.10
2023-02-16T02:27:01.417Z,98316.69
2023-02-16T02:30:03.665Z,98320.77
2023-02-16T02:32:51.302Z,98317.30
2023-02-16T02:35:38.268Z,98325.39
2023-02-16T02:38:17.593Z,98329.58
2023-02-16T02:41:00.595Z,98329.58
2023-02-16T02:43:36.958Z,98329.91
2023-02-16T02:46:13.582Z,98329.27
2023-02-16T02:48:46.817Z,98328.30
2023-02-16T02:51:34.047Z,98323.88
2023-02-16T02:54:38.437Z,98326.24
2023-02-16T02:57:46.443Z,98329.08
2023-02-16T03:00:39.776Z,98325.42
2023-02-16T03:03:19.211Z,98326.67
2023-02-16T03:05:56.690Z,98328.25
2023-02-16T03:08:36.909Z,98325.59
2023-02-16T03:11:31.778Z,98329.54
2023-02-16T03:14:10.988Z,98325.78
2023-02-16T03:16:46.785Z,98322.59
2023-02-16T03:19:38.669Z,98318.90
2023-02-16T03:22:29.366Z,98314.48
2023-02-16T03:25:19.045Z,98321.25
2023-02-16T03:28:09.278Z,98320.30
2023-02-16T03:30:43.816Z,98315.24
2023-02-16T03:33:18.105Z,98311.68
2023-02-16T03:35:51.434Z,98312.52
2023-02-16T03:38:27.368Z,98313.99
2023-02-16T03:41:00.622Z,98311.19
2023-02-16T03:43:34.311Z,98308.77
2023-02-16T03:46:07.854Z,98303.05
2023-02-16T03:48:41.394Z,98301.44
2023-02-16T03:51:14.233Z,98299.29
2023-02-16T03:53:50.454Z,98296.85
2023-02-16T03:56:24.724Z,98295.35
2023-02-16T03:58:59.470Z,98296.55
2023-02-16T04:01:32.034Z,98296.10
2023-02-16T04:04:05.083Z,98294.23
2023-02-16T04:06:39.386Z,98292.52
2023-02-16T04:09:12.617Z,98294.70
2023-02-16T04:12:02.308Z,98294.38
2023-02-16T04:14:35.049Z,98292.11
2023-02-16T04:17:07.537Z,98289.30
2023-02-16T04:19:40.582Z,98285.41
2023-02-16T04:22:13.169Z,98284.20
2023-02-16T04:24:45.870Z,98282.55
2023-02-16T04:27:18.683Z,98281.05
2023-02-16T04:29:51.310Z,98284.54
2023-02-16T04:32:24.607Z,98283.67
2023-02-16T04:34:57.301Z,98279.85
2023-02-16T04:37:30.400Z,98278.84
2023-02-16T04:40:03.233Z,98277.63
2023-02-16T04:42:35.816Z,98283.27
2023-02-16T04:45:09.369Z,98278.67
2023-02-16T04:47:44.633Z,98280.60
2023-02-16T04:50:17.466Z,98276.63
2023-02-16T04:52:50.002Z,98272.28
2023-02-16T04:55:23.232Z,98274.99
2023-02-16T04:57:58.692Z,98272.92
2023-02-16T05:00:31.388Z,98271.95
2023-02-16T05:03:04.306Z,98269.33
2023-02-16T05:05:37.112Z,98268.39
2023-02-16T05:08:10.022Z,98264.41
2023-02-16T05:10:43.906Z,98263.52
2023-02-16T05:13:33.975Z,98261.85
2023-02-16T05:16:07.130Z,98262.34
2023-02-16T05:18:39.783Z,98259.88
2023-02-16T05:21:30.391Z,98259.91
2023-02-16T05:24:03.765Z,98256.70
2023-02-16T05:26:37.807Z,98257.58
2023-02-16T05:29:10.960Z,98256.79
2023-02-16T05:31:46.124Z,98260.17
2023-02-16T05:34:18.551Z,98265.10
2023-02-16T05:36:51.083Z,98265.83
2023-02-16T05:39:24.269Z,98267.92
2023-02-16T05:41:57.206Z,98273.80
2023-02-16T05:44:30.099Z,98269.38
2023-02-16T05:47:03.134Z,98266.17
2023-02-16T05:49:36.236Z,98272.88
2023-02-16T05:52:09.563Z,98275.39
2023-02-16T05:54:41.827Z,98276.80
2023-02-16T05:57:14.889Z,98280.11
2023-02-16T05:59:48.751Z,98286.13
2023-02-16T06:02:22.153Z,98286.42
2023-02-16T06:04:54.739Z,98287.08
2023-02-16T06:07:27.660Z,98282.60
2023-02-16T06:10:00.410Z,98279.63
2023-02-16T06:12:34.924Z,98280.81
2023-02-16T06:15:07.845Z,98279.45
2023-02-16T06:17:40.880Z,98281.11
2023-02-16T06:20:14.939Z,98281.58
2023-02-16T06:22:47.663Z,98274.51
2023-02-16T06:25:21.160Z,98273.02
2023-02-16T06:27:54.104Z,98262.63
2023-02-16T06:30:27.222Z,98263.02
2023-02-16T06:32:59.809Z,98264.64
2023-02-16T06:35:32.821Z,98263.46
2023-02-16T06:38:05.679Z,98263.10
2023-02-16T06:40:38.078Z,98263.68
2023-02-16T06:43:10.580Z,98262.45
2023-02-16T06:45:42.969Z,98266.52
2023-02-16T06:48:15.749Z,98274.20
2023-02-16T06:50:48.810Z,98282.68
2023-02-16T06:53:22.065Z,98283.97
2023-02-16T06:55:55.598Z,98285.63
2023-02-16T06:58:28.351Z,98285.65
2023-02-16T07:01:00.902Z,98288.74
2023-02-16T07:03:34.305Z,98289.27
2023-02-16T07:06:07.573Z,98293.13
2023-02-16T07:08:41.538Z,98292.73
2023-02-16T07:11:14.356Z,98293.77
2023-02-16T07:13:47.407Z,98291.73
2023-02-16T07:16:20.339Z,98289.65
2023-02-16T07:18:53.104Z,98287.09
2023-02-16T07:21:25.607Z,98288.73
2023-02-16T07:23:59.737Z,98292.03
2023-02-16T07:26:32.718Z,98295.08
2023-02-16T07:29:05.500Z,98293.99
2023-02-16T07:31:39.621Z,98289.98
2023-02-16T07:34:12.444Z,98290.08
2023-02-16T07:36:46.063Z,98287.55
2023-02-16T07:39:17.266Z,98285.08
2023-02-16T07:41:49.706Z,98279.20
2023-02-16T07:44:24.104Z,98280.70
2023-02-16T07:46:56.406Z,98276.19
2023-02-16T07:49:29.693Z,98279.39
2023-02-16T07:52:02.835Z,98283.86
2023-02-16T07:54:37.103Z,98282.00
2023-02-16T07:57:10.893Z,98282.66
2023-02-16T07:59:41.773Z,98280.86
2023-02-16T08:02:21.446Z,98279.11
2023-02-16T08:04:54.252Z,98279.67
2023-02-16T08:07:28.562Z,98277.20
2023-02-16T08:10:04.242Z,98275.48
2023-02-16T08:12:37.215Z,98271.69
2023-02-16T08:15:11.127Z,98270.10
2023-02-16T08:17:44.166Z,98274.39
2023-02-16T08:20:18.097Z,98273.85
2023-02-16T08:22:50.579Z,98274.12
2023-02-16T08:25:23.446Z,98269.09
2023-02-16T08:27:56.025Z,98268.92
2023-02-16T08:30:29.085Z,98263.79
2023-02-16T08:33:02.436Z,98262.98
2023-02-16T08:35:39.263Z,98262.88
2023-02-16T08:38:11.730Z,98269.73
2023-02-16T08:40:49.194Z,98267.42
2023-02-16T08:43:21.822Z,98265.65
2023-02-16T08:45:54.588Z,98262.19
2023-02-16T08:48:29.171Z,98262.23
2023-02-16T08:51:01.791Z,98263.85
2023-02-16T08:53:36.367Z,98262.23
2023-02-16T08:56:10.205Z,98258.52
2023-02-16T08:58:43.554Z,98259.21
2023-02-16T09:01:16.955Z,98258.08
2023-02-16T09:03:50.562Z,98254.70
2023-02-16T09:06:22.801Z,98254.41
2023-02-16T09:08:58.024Z,98255.98
2023-02-16T09:11:30.757Z,98259.42
2023-02-16T09:14:04.156Z,98261.53
2023-02-16T09:16:37.067Z,98262.02
2023-02-16T09:19:10.003Z,98258.09
2023-02-16T09:21:43.384Z,98260.88
2023-02-16T09:24:16.839Z,98262.11
2023-02-16T09:26:50.148Z,98264.33
2023-02-16T09:29:23.637Z,98266.58
2023-02-16T09:31:58.084Z,98265.04
2023-02-16T09:34:30.773Z,98266.24
2023-02-16T09:37:03.449Z,98260.98
2023-02-16T09:39:36.523Z,98264.23
2023-02-16T09:42:28.892Z,98263.20
2023-02-16T09:45:07.929Z,98261.83
2023-02-16T09:47:45.261Z,98261.66
2023-02-16T09:50:38.229Z,98261.16
2023-02-16T09:53:22.846Z,98267.52
2023-02-16T09:56:06.833Z,98268.54
2023-02-16T09:58:47.053Z,98271.29
2023-02-16T10:01:32.094Z,98264.62
2023-02-16T10:04:25.562Z,98266.16
2023-02-16T10:07:06.592Z,98268.36
2023-02-16T10:09:40.732Z,98270.79
2023-02-16T10:12:17.033Z,98268.02
2023-02-16T10:14:52.609Z,98270.42
2023-02-16T10:17:30.871Z,98268.52
2023-02-16T10:20:06.961Z,98270.90
2023-02-16T10:22:43.564Z,98274.63
2023-02-16T10:25:20.876Z,98275.63
2023-02-16T10:28:00.743Z,98273.34
2023-02-16T10:30:35.126Z,98272.77
2023-02-16T10:33:17.211Z,98273.63
2023-02-16T10:35:54.303Z,98272.89
2023-02-16T10:38:37.101Z,98276.27
2023-02-16T10:41:19.472Z,98270.38
2023-02-16T10:43:59.127Z,98267.75
2023-02-16T10:46:38.022Z,98261.91
2023-02-16T10:49:14.823Z,98262.89
2023-02-16T10:51:52.022Z,98262.20
2023-02-16T10:54:28.675Z,98255.13
2023-02-16T10:57:02.950Z,98248.14
2023-02-16T10:59:42.160Z,98242.15
2023-02-16T11:02:24.846Z,98233.58
2023-02-16T11:04:59.280Z,98226.20
2023-02-16T11:07:34.228Z,98224.68
2023-02-16T11:10:24.624Z,98221.05
2023-02-16T11:13:00.573Z,98218.08
2023-02-16T11:15:34.562Z,98216.98
2023-02-16T11:18:13.443Z,98213.34
2023-02-16T11:20:57.840Z,98207.55
2023-02-16T11:23:32.377Z,98202.54
2023-02-16T11:26:09.714Z,98194.73
2023-02-16T11:28:44.751Z,98192.50
2023-02-16T11:31:21.653Z,98190.19
2023-02-16T11:34:05.954Z,98183.89
2023-02-16T11:36:41.615Z,98182.21
2023-02-16T11:39:22.952Z,98179.83
2023-02-16T11:42:01.790Z,98178.20
2023-02-16T11:44:39.954Z,98173.30
2023-02-16T11:47:26.589Z,98174.29
2023-02-16T11:50:21.984Z,98174.23
2023-02-16T11:52:57.772Z,98173.68
2023-02-16T11:55:34.250Z,98165.13
2023-02-16T11:58:21.956Z,98160.67
2023-02-16T12:01:18.642Z,98155.11
2023-02-16T12:04:05.307Z,98149.02
2023-02-16T12:06:54.377Z,98144.86
2023-02-16T12:09:41.286Z,98149.41
2023-02-16T12:12:20.242Z,98154.44
2023-02-16T12:15:03.941Z,98149.70
2023-02-16T12:17:46.386Z,98148.95
2023-02-16T12:20:43.784Z,98149.20
2023-02-16T12:23:36.493Z,98147.06
2023-02-16T12:26:35.811Z,98146.11
2023-02-16T12:29:22.157Z,98141.94
2023-02-16T12:32:08.386Z,98137.34
2023-02-16T12:34:55.983Z,98137.61
2023-02-16T12:37:38.162Z,98136.73
2023-02-16T12:40:22.453Z,98139.55
2023-02-16T12:43:05.089Z,98134.38
2023-02-16T12:45:46.238Z,98133.23
2023-02-16T12:48:31.771Z,98130.44
2023-02-16T12:51:08.206Z,98129.95
2023-02-16T12:53:49.351Z,98127.15
2023-02-16T12:56:26.989Z,98120.64
2023-02-16T12:59:16.950Z,98110.63
2023-02-16T13:01:54.003Z,98109.02
2023-02-16T13:04:36.561Z,98110.23
2023-02-16T13:07:18.547Z,98110.27
2023-02-16T13:09:59.575Z,98107.14
2023-02-16T13:12:38.018Z,98107.22
2023-02-16T13:15:18.578Z,98106.64
2023-02-16T13:17:57.867Z,98107.01
2023-02-16T13:20:31.067Z,98110.10
2023-02-16T13:23:39.540Z,98106.71
2023-02-16T13:26:38.318Z,98105.95
2023-02-16T13:29:37.897Z,98104.48
2023-02-16T13:32:38.921Z,98099.73
2023-02-16T13:35:31.556Z,98099.79
2023-02-16T13:38:19.369Z,98094.73
2023-02-16T13:41:30.669Z,98092.66
2023-02-16T13:44:09.202Z,98085.81
2023-02-16T13:46:44.948Z,98090.67
2023-02-16T13:49:36.689Z,98093.43
2023-02-16T13:52:12.040Z,98092.61
2023-02-16T13:54:45.447Z,98084.18
2023-02-16T13:57:39.000Z,98088.65
2023-02-16T14:00:30.929Z,98087.80
2023-02-16T14:03:05.289Z,98085.73
2023-02-16T14:05:43.728Z,98086.08
2023-02-16T14:08:28.433Z,98091.26
2023-02-16T14:11:07.180Z,98087.30
2023-02-16T14:13:52.110Z,98091.12
2023-02-16T14:16:37.402Z,98091.51
2023-02-16T14:19:25.253Z,98087.17
2023-02-16T14:22:10.399Z,98090.70
2023-02-16T14:24:44.953Z,98093.63
2023-02-16T14:27:38.894Z,98090.06
2023-02-16T14:30:22.128Z,98095.77
2023-02-16T14:33:02.871Z,98091.55
2023-02-16T14:35:38.368Z,98091.90
2023-02-16T14:38:22.503Z,98092.23
2023-02-16T14:41:06.851Z,98087.98
2023-02-16T14:43:46.206Z,98090.66
2023-02-16T14:46:47.963Z,98083.64
2023-02-16T14:50:09.619Z,98080.55
2023-02-16T14:53:02.237Z,98080.73
2023-02-16T14:56:11.922Z,98077.27
2023-02-16T14:58:53.641Z,98079.80
2023-02-16T15:01:26.555Z,98076.06
2023-02-16T15:04:00.392Z,98072.58
2023-02-16T15:06:38.272Z,98072.83
2023-02-16T15:09:19.913Z,98068.02
2023-02-16T15:12:12.305Z,98070.77
2023-02-16T15:14:49.837Z,98067.88
2023-02-16T15:17:31.812Z,98067.23
2023-02-16T15:20:11.180Z,98067.62
2023-02-16T15:22:52.837Z,98067.69
2023-02-16T15:25:29.951Z,98067.91
2023-02-16T15:28:06.027Z,98074.31
2023-02-16T15:30:41.618Z,98070.39
2023-02-16T15:33:27.760Z,98068.02
2023-02-16T15:36:03.296Z,98068.77
2023-02-16T15:38:38.330Z,98071.56
2023-02-16T15:41:16.299Z,98070.73
2023-02-16T15:43:51.345Z,98068.73
2023-02-16T15:46:31.032Z,98068.44
2023-02-16T15:49:15.417Z,98063.15
2023-02-16T15:51:48.225Z,98061.31
2023-02-16T15:54:27.248Z,98064.80
2023-02-16T15:57:02.124Z,98065.35
2023-02-16T15:59:40.407Z,98066.76
2023-02-16T16:02:22.636Z,98071.08
2023-02-16T16:04:59.678Z,98065.27
2023-02-16T16:07:36.136Z,98067.02
2023-02-16T16:10:26.749Z,98068.94
2023-02-16T16:13:04.012Z,98075.14
2023-02-16T16:15:42.113Z,98079.46
2023-02-16T16:18:39.507Z,98073.49
2023-02-16T16:21:26.212Z,98072.64
2023-02-16T16:24:04.506Z,98071.13
2023-02-16T16:26:51.927Z,98069.08
2023-02-16T16:29:39.226Z,98067.38
2023-02-16T16:32:23.074Z,98067.21
2023-02-16T16:34:56.537Z,98064.80
2023-02-16T16:37:35.259Z,98063.63
2023-02-16T16:40:22.494Z,98062.97
2023-02-16T16:43:13.746Z,98059.39
2023-02-16T16:45:48.914Z,98063.16
2023-02-16T16:48:27.747Z,98062.83
2023-02-16T16:51:16.506Z,98062.50
2023-02-16T16:53:55.702Z,98062.01
2023-02-16T16:56:29.684Z,98065.94
2023-02-16T16:59:05.028Z,98069.55
2023-02-16T17:01:41.890Z,98075.05
2023-02-16T17:04:16.067Z,98075.20
2023-02-16T17:06:50.465Z,98074.52
2023-02-16T17:09:23.155Z,98071.61
2023-02-16T17:11:57.052Z,98072.64
2023-02-16T17:14:28.612Z,98069.23
2023-02-16T17:17:03.383Z,98066.12
2023-02-16T17:19:37.040Z,98071.43
2023-02-16T17:22:14.173Z,98072.11
2023-02-16T17:24:50.416Z,98072.11
2023-02-16T17:27:23.482Z,98078.62
2023-02-16T17:30:03.004Z,98078.96
2023-02-16T17:32:37.615Z,98075.70
2023-02-16T17:35:12.372Z,98077.73
2023-02-16T17:37:52.103Z,98075.33
2023-02-16T17:40:34.203Z,98077.89
2023-02-16T17:43:15.257Z,98078.03
2023-02-16T17:45:49.432Z,98077.33
2023-02-16T17:48:25.706Z,98082.29
2023-02-16T17:51:04.646Z,98075.95
2023-02-16T17:53:38.540Z,98076.11
2023-02-16T17:56:15.269Z,98072.67
2023-02-16T17:58:53.530Z,98076.04
2023-02-16T18:01:35.485Z,98070.73
2023-02-16T18:04:11.375Z,98067.65
2023-02-16T18:06:46.878Z,98069.47
2023-02-16T18:09:24.720Z,98072.86
2023-02-16T18:11:58.663Z,98075.10
2023-02-16T18:14:32.102Z,98080.02
2023-02-16T18:17:04.893Z,98087.54
2023-02-16T18:19:37.444Z,98085.48
2023-02-16T18:22:12.581Z,98084.06
2023-02-16T18:24:45.442Z,98082.49
2023-02-16T18:27:21.831Z,98082.81
2023-02-16T18:29:54.701Z,98082.11
2023-02-16T18:32:27.636Z,98085.52
2023-02-16T18:35:02.432Z,98085.86
2023-02-16T18:37:35.917Z,98089.58
2023-02-16T18:40:21.631Z,98083.89
2023-02-16T18:42:59.470Z,98086.08
2023-02-16T18:45:33.738Z,98089.80
2023-02-16T18:48:07.400Z,98093.04
2023-02-16T18:50:44.241Z,98095.07
2023-02-16T18:53:21.638Z,98094.83
2023-02-16T18:55:55.943Z,98096.70
2023-02-16T18:58:37.006Z,98097.02
2023-02-16T19:01:18.397Z,98094.10
2023-02-16T19:03:53.380Z,98094.27
2023-02-16T19:06:30.191Z,98097.47
2023-02-16T19:09:05.393Z,98101.20
2023-02-16T19:11:39.930Z,98100.79
2023-02-16T19:14:17.980Z,98101.61
2023-02-16T19:16:54.220Z,98101.23
2023-02-16T19:19:30.189Z,98105.52
2023-02-16T19:22:03.924Z,98108.23
2023-02-16T19:24:38.834Z,98107.73
2023-02-16T19:27:11.473Z,98107.55
2023-02-16T19:29:44.301Z,98103.72
2023-02-16T19:32:19.470Z,98101.24
2023-02-16T19:34:52.382Z,98098.33
2023-02-16T19:37:25.490Z,98096.25
2023-02-16T19:39:58.257Z,98098.45
2023-02-16T19:42:32.568Z,98097.89
2023-02-16T19:45:05.446Z,98099.94
2023-02-16T19:47:38.894Z,98100.80
2023-02-16T19:50:12.833Z,98099.05
2023-02-16T19:52:45.632Z,98097.20
2023-02-16T19:55:18.970Z,98099.55
2023-02-16T19:57:51.518Z,98098.80
2023-02-16T20:00:24.245Z,98095.89
2023-02-16T20:02:58.518Z,98094.18
2023-02-16T20:05:32.975Z,98096.73
2023-02-16T20:08:07.017Z,98096.70
2023-02-16T20:10:44.345Z,98096.19
2023-02-16T20:13:17.672Z,98096.49
2023-02-16T20:15:51.809Z,98097.54
2023-02-16T20:18:25.046Z,98093.09
2023-02-16T20:21:04.547Z,98093.58
2023-02-16T20:23:37.695Z,98095.80
2023-02-16T20:26:13.236Z,98099.38
2023-02-16T20:28:46.496Z,98094.77
2023-02-16T20:31:22.449Z,98096.81
2023-02-16T20:33:56.019Z,98100.74
2023-02-16T20:36:28.968Z,98101.61
2023-02-16T20:39:05.108Z,98100.24
2023-02-16T20:41:38.467Z,98101.77
2023-02-16T20:44:14.907Z,98100.21
2023-02-16T20:46:47.961Z,98096.46
2023-02-16T20:49:20.765Z,98093.71
2023-02-16T20:51:53.584Z,98095.93
2023-02-16T20:54:28.454Z,98089.80
2023-02-16T20:57:01.999Z,98089.98
2023-02-16T20:59:38.812Z,98085.86
2023-02-16T21:02:13.939Z,98082.92
2023-02-16T21:04:46.362Z,98082.04
2023-02-16T21:07:19.015Z,98084.39
2023-02-16T21:09:51.593Z,98081.66
2023-02-16T21:12:24.343Z,98081.60
2023-02-16T21:15:00.055Z,98080.94
2023-02-16T21:17:34.668Z,98081.80
2023-02-16T21:20:08.043Z,98082.30
2023-02-16T21:22:40.699Z,98084.83
2023-02-16T21:25:13.643Z,98083.79
2023-02-16T21:27:46.686Z,98079.52
2023-02-16T21:30:19.737Z,98079.36
2023-02-16T21:32:55.694Z,98078.89
2023-02-16T21:35:29.677Z,98077.02
2023-02-16T21:38:01.187Z,98076.67
2023-02-16T21:40:51.054Z,98072.52
2023-02-16T21:43:23.883Z,98069.29
2023-02-16T21:46:03.926Z,98063.83
2023-02-16T21:48:48.788Z,98064.51
2023-02-16T21:51:24.542Z,98066.92
2023-02-16T21:53:58.465Z,98066.75
2023-02-16T21:56:39.320Z,98069.30
2023-02-16T21:59:14.083Z,98069.14
2023-02-16T22:01:51.366Z,98068.64
2023-02-16T22:04:25.741Z,98063.50
2023-02-16T22:06:58.509Z,98066.77
2023-02-16T22:09:30.920Z,98063.88
2023-02-16T22:12:03.578Z,98065.57
2023-02-16T22:14:36.484Z,98067.45
2023-02-16T22:17:11.798Z,98068.98
2023-02-16T22:19:44.243Z,98067.97
2023-02-16T22:22:16.994Z,98064.39
2023-02-16T22:24:50.953Z,98064.02
2023-02-16T22:27:23.644Z,98062.31
2023-02-16T22:29:57.501Z,98064.02
2023-02-16T22:32:30.066Z,98063.86
2023-02-16T22:35:06.549Z,98063.15
2023-02-16T22:37:39.149Z,98057.16
2023-02-16T22:40:15.276Z,98059.83
2023-02-16T22:42:47.817Z,98054.16
2023-02-16T22:45:20.838Z,98054.45
2023-02-16T22:47:54.102Z,98056.81
2023-02-16T22:50:26.917Z,98055.27
2023-02-16T22:52:59.581Z,98049.63
2023-02-16T22:55:32.602Z,98050.16
2023-02-16T22:58:05.247Z,98051.36
2023-02-16T23:00:37.738Z,98050.15
2023-02-16T23:03:10.237Z,98051.88
2023-02-16T23:05:42.797Z,98053.98
2023-02-16T23:08:15.958Z,98055.02
2023-02-16T23:11:01.241Z,98057.12
2023-02-16T23:13:35.639Z,98055.27
2023-02-16T23:16:13.763Z,98059.23
2023-02-16T23:18:47.207Z,98066.41
2023-02-16T23:21:39.531Z,98066.58
2023-02-16T23:24:16.338Z,98064.38
2023-02-16T23:26:49.445Z,98066.79
2023-02-16T23:29:24.714Z,98069.39
2023-02-16T23:31:57.326Z,98068.02
2023-02-16T23:34:29.758Z,98065.46
2023-02-16T23:37:02.650Z,98061.38
2023-02-16T23:39:35.174Z,98058.27
2023-02-16T23:42:08.486Z,98053.48
2023-02-16T23:44:40.914Z,98051.95
2023-02-16T23:47:13.674Z,98051.08
2023-02-16T23:49:46.234Z,98049.92
2023-02-16T23:52:19.289Z,98053.16
2023-02-16T23:54:52.123Z,98052.15
2023-02-16T23:57:25.578Z,98059.65
2023-02-16T23:59:58.614Z,98055.22
